sensor_id;sensor_type;location;lat;lon;timestamp;temperature;humidity
24668;DHT22;12793;48.014;0.232;2022-10-16T00:00:31;16.60;71.80
24668;DHT22;12793;48.014;0.232;2022-10-16T00:02:56;16.60;71.90
24668;DHT22;12793;48.014;0.232;2022-10-16T00:05:22;16.60;71.90
24668;DHT22;12793;48.014;0.232;2022-10-16T00:07:47;16.60;71.90
24668;DHT22;12793;48.014;0.232;2022-10-16T00:10:13;16.60;72.10
24668;DHT22;12793;48.014;0.232;2022-10-16T00:12:39;16.60;72.10
24668;DHT22;12793;48.014;0.232;2022-10-16T00:15:05;16.50;72.10
24668;DHT22;12793;48.014;0.232;2022-10-16T00:17:31;16.60;72.10
24668;DHT22;12793;48.014;0.232;2022-10-16T00:19:57;16.60;72.20
24668;DHT22;12793;48.014;0.232;2022-10-16T00:22:23;16.60;72.20
24668;DHT22;12793;48.014;0.232;2022-10-16T00:24:48;16.60;72.20
24668;DHT22;12793;48.014;0.232;2022-10-16T00:27:14;16.50;72.10
24668;DHT22;12793;48.014;0.232;2022-10-16T00:29:39;16.50;72.20
24668;DHT22;12793;48.014;0.232;2022-10-16T00:32:05;16.60;72.40
24668;DHT22;12793;48.014;0.232;2022-10-16T00:34:30;16.50;72.30
24668;DHT22;12793;48.014;0.232;2022-10-16T00:36:56;16.60;72.40
24668;DHT22;12793;48.014;0.232;2022-10-16T00:39:21;16.60;72.50
24668;DHT22;12793;48.014;0.232;2022-10-16T00:41:47;16.60;73.10
24668;DHT22;12793;48.014;0.232;2022-10-16T00:46:57;16.50;72.50
24668;DHT22;12793;48.014;0.232;2022-10-16T00:49:23;16.50;72.60
24668;DHT22;12793;48.014;0.232;2022-10-16T00:51:52;16.50;72.70
24668;DHT22;12793;48.014;0.232;2022-10-16T00:56:47;16.50;72.80
24668;DHT22;12793;48.014;0.232;2022-10-16T00:59:18;16.50;72.90
24668;DHT22;12793;48.014;0.232;2022-10-16T01:01:44;16.50;73.00
24668;DHT22;12793;48.014;0.232;2022-10-16T01:04:10;16.50;73.00
24668;DHT22;12793;48.014;0.232;2022-10-16T01:06:42;16.50;73.10
24668;DHT22;12793;48.014;0.232;2022-10-16T01:14:06;16.40;73.30
24668;DHT22;12793;48.014;0.232;2022-10-16T01:19:09;16.40;74.00
24668;DHT22;12793;48.014;0.232;2022-10-16T01:21:41;16.40;73.40
24668;DHT22;12793;48.014;0.232;2022-10-16T01:24:15;16.40;73.40
24668;DHT22;12793;48.014;0.232;2022-10-16T01:29:34;16.40;73.40
24668;DHT22;12793;48.014;0.232;2022-10-16T01:32:09;16.40;73.50
24668;DHT22;12793;48.014;0.232;2022-10-16T01:34:37;16.40;73.50
24668;DHT22;12793;48.014;0.232;2022-10-16T01:37:11;16.40;73.50
24668;DHT22;12793;48.014;0.232;2022-10-16T01:39:39;16.30;73.40
24668;DHT22;12793;48.014;0.232;2022-10-16T01:42:07;16.30;73.50
24668;DHT22;12793;48.014;0.232;2022-10-16T01:44:34;16.30;73.60
24668;DHT22;12793;48.014;0.232;2022-10-16T01:47:01;16.30;73.60
24668;DHT22;12793;48.014;0.232;2022-10-16T01:49:28;16.30;73.70
24668;DHT22;12793;48.014;0.232;2022-10-16T01:51:55;16.30;73.70
24668;DHT22;12793;48.014;0.232;2022-10-16T01:54:22;16.30;73.60
24668;DHT22;12793;48.014;0.232;2022-10-16T01:56:48;16.30;73.70
24668;DHT22;12793;48.014;0.232;2022-10-16T01:59:21;16.30;73.60
24668;DHT22;12793;48.014;0.232;2022-10-16T02:01:50;16.30;73.70
24668;DHT22;12793;48.014;0.232;2022-10-16T02:06:43;16.30;73.70
24668;DHT22;12793;48.014;0.232;2022-10-16T02:09:09;16.30;73.70
24668;DHT22;12793;48.014;0.232;2022-10-16T02:11:34;16.30;73.70
24668;DHT22;12793;48.014;0.232;2022-10-16T02:14:06;16.30;73.70
24668;DHT22;12793;48.014;0.232;2022-10-16T02:16:34;16.30;73.60
24668;DHT22;12793;48.014;0.232;2022-10-16T02:18:59;16.30;73.80
24668;DHT22;12793;48.014;0.232;2022-10-16T02:21:25;16.30;73.80
24668;DHT22;12793;48.014;0.232;2022-10-16T02:24:03;16.30;73.80
24668;DHT22;12793;48.014;0.232;2022-10-16T02:29:22;16.30;73.90
24668;DHT22;12793;48.014;0.232;2022-10-16T02:31:49;16.40;73.90
24668;DHT22;12793;48.014;0.232;2022-10-16T02:34:16;16.30;73.80
24668;DHT22;12793;48.014;0.232;2022-10-16T02:36:42;16.30;73.80
24668;DHT22;12793;48.014;0.232;2022-10-16T02:39:08;16.30;73.90
24668;DHT22;12793;48.014;0.232;2022-10-16T02:41:34;16.30;74.00
24668;DHT22;12793;48.014;0.232;2022-10-16T02:44:00;16.30;73.90
24668;DHT22;12793;48.014;0.232;2022-10-16T02:46:26;16.30;73.90
24668;DHT22;12793;48.014;0.232;2022-10-16T02:48:51;16.30;74.00
24668;DHT22;12793;48.014;0.232;2022-10-16T02:51:17;16.30;74.10
24668;DHT22;12793;48.014;0.232;2022-10-16T02:53:43;16.30;74.10
24668;DHT22;12793;48.014;0.232;2022-10-16T02:56:08;16.30;74.00
24668;DHT22;12793;48.014;0.232;2022-10-16T02:58:34;16.30;74.00
24668;DHT22;12793;48.014;0.232;2022-10-16T03:00:59;16.30;74.10
24668;DHT22;12793;48.014;0.232;2022-10-16T03:03:25;16.30;74.10
24668;DHT22;12793;48.014;0.232;2022-10-16T03:05:51;16.30;74.00
24668;DHT22;12793;48.014;0.232;2022-10-16T03:08:17;16.30;74.10
24668;DHT22;12793;48.014;0.232;2022-10-16T03:10:48;16.30;74.20
24668;DHT22;12793;48.014;0.232;2022-10-16T03:13:14;16.20;74.10
24668;DHT22;12793;48.014;0.232;2022-10-16T03:15:39;16.20;74.10
24668;DHT22;12793;48.014;0.232;2022-10-16T03:18:06;16.20;74.10
24668;DHT22;12793;48.014;0.232;2022-10-16T03:20:31;16.20;74.20
24668;DHT22;12793;48.014;0.232;2022-10-16T03:22:57;16.20;74.20
24668;DHT22;12793;48.014;0.232;2022-10-16T03:25:22;16.20;74.30
24668;DHT22;12793;48.014;0.232;2022-10-16T03:27:48;16.30;74.40
24668;DHT22;12793;48.014;0.232;2022-10-16T03:30:13;16.30;75.00
24668;DHT22;12793;48.014;0.232;2022-10-16T03:32:39;16.20;74.30
24668;DHT22;12793;48.014;0.232;2022-10-16T03:35:04;16.20;74.40
24668;DHT22;12793;48.014;0.232;2022-10-16T03:37:30;16.20;74.40
24668;DHT22;12793;48.014;0.232;2022-10-16T03:39:56;16.20;74.40
24668;DHT22;12793;48.014;0.232;2022-10-16T03:42:21;16.20;74.40
24668;DHT22;12793;48.014;0.232;2022-10-16T03:44:47;16.20;74.50
24668;DHT22;12793;48.014;0.232;2022-10-16T03:47:13;16.20;74.50
24668;DHT22;12793;48.014;0.232;2022-10-16T03:49:38;16.20;74.50
24668;DHT22;12793;48.014;0.232;2022-10-16T03:52:04;16.20;74.50
24668;DHT22;12793;48.014;0.232;2022-10-16T03:54:29;16.20;74.60
24668;DHT22;12793;48.014;0.232;2022-10-16T03:56:55;16.20;74.70
24668;DHT22;12793;48.014;0.232;2022-10-16T03:59:20;16.20;74.70
24668;DHT22;12793;48.014;0.232;2022-10-16T04:01:46;16.20;74.80
24668;DHT22;12793;48.014;0.232;2022-10-16T04:04:11;16.20;74.80
24668;DHT22;12793;48.014;0.232;2022-10-16T04:06:37;16.10;74.80
24668;DHT22;12793;48.014;0.232;2022-10-16T04:09:02;16.20;75.00
24668;DHT22;12793;48.014;0.232;2022-10-16T04:11:28;16.10;74.90
24668;DHT22;12793;48.014;0.232;2022-10-16T04:13:54;16.20;75.10
24668;DHT22;12793;48.014;0.232;2022-10-16T04:16:20;16.20;75.10
24668;DHT22;12793;48.014;0.232;2022-10-16T04:18:45;16.20;75.20
24668;DHT22;12793;48.014;0.232;2022-10-16T04:21:11;16.20;75.20
24668;DHT22;12793;48.014;0.232;2022-10-16T04:23:36;16.20;75.20
24668;DHT22;12793;48.014;0.232;2022-10-16T04:26:02;16.20;75.40
24668;DHT22;12793;48.014;0.232;2022-10-16T04:28:28;16.20;75.40
24668;DHT22;12793;48.014;0.232;2022-10-16T04:30:53;16.20;75.40
24668;DHT22;12793;48.014;0.232;2022-10-16T04:33:19;16.10;75.50
24668;DHT22;12793;48.014;0.232;2022-10-16T04:35:44;16.10;75.50
24668;DHT22;12793;48.014;0.232;2022-10-16T04:38:10;16.10;75.50
24668;DHT22;12793;48.014;0.232;2022-10-16T04:40:35;16.10;75.70
24668;DHT22;12793;48.014;0.232;2022-10-16T04:43:02;16.10;75.70
24668;DHT22;12793;48.014;0.232;2022-10-16T04:45:28;16.10;75.70
24668;DHT22;12793;48.014;0.232;2022-10-16T04:47:56;16.10;75.80
24668;DHT22;12793;48.014;0.232;2022-10-16T04:50:21;16.10;75.90
24668;DHT22;12793;48.014;0.232;2022-10-16T04:52:48;16.00;75.90
24668;DHT22;12793;48.014;0.232;2022-10-16T04:55:14;16.10;76.00
24668;DHT22;12793;48.014;0.232;2022-10-16T04:57:40;16.10;76.00
24668;DHT22;12793;48.014;0.232;2022-10-16T05:00:05;16.00;76.10
24668;DHT22;12793;48.014;0.232;2022-10-16T05:02:31;16.10;76.20
24668;DHT22;12793;48.014;0.232;2022-10-16T05:04:56;16.10;76.30
24668;DHT22;12793;48.014;0.232;2022-10-16T05:07:22;16.10;76.30
24668;DHT22;12793;48.014;0.232;2022-10-16T05:09:48;16.10;76.40
24668;DHT22;12793;48.014;0.232;2022-10-16T05:12:14;16.00;76.30
24668;DHT22;12793;48.014;0.232;2022-10-16T05:14:39;16.00;76.30
24668;DHT22;12793;48.014;0.232;2022-10-16T05:17:05;16.00;76.40
24668;DHT22;12793;48.014;0.232;2022-10-16T05:19:31;16.10;76.50
24668;DHT22;12793;48.014;0.232;2022-10-16T05:21:56;16.10;76.70
24668;DHT22;12793;48.014;0.232;2022-10-16T05:24:22;16.10;76.80
24668;DHT22;12793;48.014;0.232;2022-10-16T05:26:48;16.10;76.80
24668;DHT22;12793;48.014;0.232;2022-10-16T05:29:14;16.10;76.90
24668;DHT22;12793;48.014;0.232;2022-10-16T05:31:39;16.10;77.00
24668;DHT22;12793;48.014;0.232;2022-10-16T05:34:05;16.10;77.00
24668;DHT22;12793;48.014;0.232;2022-10-16T05:36:30;16.10;77.00
24668;DHT22;12793;48.014;0.232;2022-10-16T05:38:56;16.10;77.10
24668;DHT22;12793;48.014;0.232;2022-10-16T05:41:21;16.10;77.10
24668;DHT22;12793;48.014;0.232;2022-10-16T05:43:48;16.10;77.90
24668;DHT22;12793;48.014;0.232;2022-10-16T05:46:15;16.10;77.50
24668;DHT22;12793;48.014;0.232;2022-10-16T05:48:40;16.00;77.60
24668;DHT22;12793;48.014;0.232;2022-10-16T05:51:07;16.00;77.70
24668;DHT22;12793;48.014;0.232;2022-10-16T05:53:33;16.00;77.90
24668;DHT22;12793;48.014;0.232;2022-10-16T05:55:59;16.10;77.90
24668;DHT22;12793;48.014;0.232;2022-10-16T05:58:25;16.00;78.00
24668;DHT22;12793;48.014;0.232;2022-10-16T06:00:58;16.00;78.00
24668;DHT22;12793;48.014;0.232;2022-10-16T06:03:24;16.00;78.70
24668;DHT22;12793;48.014;0.232;2022-10-16T06:05:50;16.00;78.10
24668;DHT22;12793;48.014;0.232;2022-10-16T06:08:16;16.10;78.20
24668;DHT22;12793;48.014;0.232;2022-10-16T06:10:41;16.10;78.30
24668;DHT22;12793;48.014;0.232;2022-10-16T06:13:07;16.10;78.30
24668;DHT22;12793;48.014;0.232;2022-10-16T06:15:32;16.10;78.40
24668;DHT22;12793;48.014;0.232;2022-10-16T06:17:58;16.10;78.50
24668;DHT22;12793;48.014;0.232;2022-10-16T06:20:23;16.10;78.50
24668;DHT22;12793;48.014;0.232;2022-10-16T06:22:49;16.10;78.50
24668;DHT22;12793;48.014;0.232;2022-10-16T06:25:14;16.10;78.50
24668;DHT22;12793;48.014;0.232;2022-10-16T06:27:40;16.10;78.60
24668;DHT22;12793;48.014;0.232;2022-10-16T06:30:06;16.10;78.60
24668;DHT22;12793;48.014;0.232;2022-10-16T06:32:32;16.10;78.60
24668;DHT22;12793;48.014;0.232;2022-10-16T06:34:57;16.10;78.70
24668;DHT22;12793;48.014;0.232;2022-10-16T06:37:23;16.20;78.80
24668;DHT22;12793;48.014;0.232;2022-10-16T06:39:50;16.20;78.80
24668;DHT22;12793;48.014;0.232;2022-10-16T06:42:18;16.20;78.90
24668;DHT22;12793;48.014;0.232;2022-10-16T06:44:43;16.20;78.90
24668;DHT22;12793;48.014;0.232;2022-10-16T06:47:09;16.20;79.00
24668;DHT22;12793;48.014;0.232;2022-10-16T06:49:35;16.20;79.00
24668;DHT22;12793;48.014;0.232;2022-10-16T06:52:00;16.30;79.10
24668;DHT22;12793;48.014;0.232;2022-10-16T06:54:27;16.30;79.10
24668;DHT22;12793;48.014;0.232;2022-10-16T06:56:52;16.30;79.20
24668;DHT22;12793;48.014;0.232;2022-10-16T06:59:20;16.30;79.20
24668;DHT22;12793;48.014;0.232;2022-10-16T07:01:45;16.40;79.30
24668;DHT22;12793;48.014;0.232;2022-10-16T07:04:11;16.40;79.30
24668;DHT22;12793;48.014;0.232;2022-10-16T07:06:36;16.40;79.20
24668;DHT22;12793;48.014;0.232;2022-10-16T07:09:03;16.50;79.30
24668;DHT22;12793;48.014;0.232;2022-10-16T07:11:29;16.50;79.20
24668;DHT22;12793;48.014;0.232;2022-10-16T07:13:55;16.50;79.20
24668;DHT22;12793;48.014;0.232;2022-10-16T07:16:22;16.60;79.20
24668;DHT22;12793;48.014;0.232;2022-10-16T07:18:48;16.60;79.30
24668;DHT22;12793;48.014;0.232;2022-10-16T07:21:18;16.70;79.30
24668;DHT22;12793;48.014;0.232;2022-10-16T07:23:44;16.70;79.30
24668;DHT22;12793;48.014;0.232;2022-10-16T07:26:10;16.70;79.10
24668;DHT22;12793;48.014;0.232;2022-10-16T07:28:36;16.70;79.20
24668;DHT22;12793;48.014;0.232;2022-10-16T07:31:02;16.80;79.30
24668;DHT22;12793;48.014;0.232;2022-10-16T07:33:28;16.80;79.30
24668;DHT22;12793;48.014;0.232;2022-10-16T07:35:54;16.80;79.30
24668;DHT22;12793;48.014;0.232;2022-10-16T07:38:20;16.80;79.30
24668;DHT22;12793;48.014;0.232;2022-10-16T07:40:46;16.90;79.30
24668;DHT22;12793;48.014;0.232;2022-10-16T07:43:12;16.80;79.20
24668;DHT22;12793;48.014;0.232;2022-10-16T07:45:40;16.80;79.20
24668;DHT22;12793;48.014;0.232;2022-10-16T07:48:11;16.90;79.20
24668;DHT22;12793;48.014;0.232;2022-10-16T07:50:36;16.90;79.10
24668;DHT22;12793;48.014;0.232;2022-10-16T07:53:03;16.90;79.10
24668;DHT22;12793;48.014;0.232;2022-10-16T07:55:28;16.90;79.10
24668;DHT22;12793;48.014;0.232;2022-10-16T07:57:54;17.00;79.10
24668;DHT22;12793;48.014;0.232;2022-10-16T08:00:20;17.00;78.90
24668;DHT22;12793;48.014;0.232;2022-10-16T08:02:46;17.00;78.90
24668;DHT22;12793;48.014;0.232;2022-10-16T08:05:12;17.10;78.90
24668;DHT22;12793;48.014;0.232;2022-10-16T08:07:37;17.10;78.90
24668;DHT22;12793;48.014;0.232;2022-10-16T08:10:03;17.20;78.80
24668;DHT22;12793;48.014;0.232;2022-10-16T08:12:29;17.30;78.80
24668;DHT22;12793;48.014;0.232;2022-10-16T08:14:54;17.40;78.70
24668;DHT22;12793;48.014;0.232;2022-10-16T08:17:20;17.40;78.50
24668;DHT22;12793;48.014;0.232;2022-10-16T08:19:45;17.50;78.20
24668;DHT22;12793;48.014;0.232;2022-10-16T08:22:11;17.70;78.10
24668;DHT22;12793;48.014;0.232;2022-10-16T08:24:37;17.70;77.60
24668;DHT22;12793;48.014;0.232;2022-10-16T08:27:02;17.70;77.30
24668;DHT22;12793;48.014;0.232;2022-10-16T08:29:28;17.80;77.20
24668;DHT22;12793;48.014;0.232;2022-10-16T08:31:53;17.80;77.10
24668;DHT22;12793;48.014;0.232;2022-10-16T08:34:19;17.80;76.90
24668;DHT22;12793;48.014;0.232;2022-10-16T08:36:45;17.90;76.70
24668;DHT22;12793;48.014;0.232;2022-10-16T08:39:10;17.90;76.70
24668;DHT22;12793;48.014;0.232;2022-10-16T08:46:51;18.10;76.80
24668;DHT22;12793;48.014;0.232;2022-10-16T08:49:21;18.20;76.60
24668;DHT22;12793;48.014;0.232;2022-10-16T08:51:49;18.20;76.20
24668;DHT22;12793;48.014;0.232;2022-10-16T08:56:54;18.40;75.70
24668;DHT22;12793;48.014;0.232;2022-10-16T08:59:19;18.30;75.40
24668;DHT22;12793;48.014;0.232;2022-10-16T09:01:45;18.40;75.40
24668;DHT22;12793;48.014;0.232;2022-10-16T09:06:46;18.40;75.40
24668;DHT22;12793;48.014;0.232;2022-10-16T09:14:31;18.40;73.90
24668;DHT22;12793;48.014;0.232;2022-10-16T09:17:10;18.40;73.80
24668;DHT22;12793;48.014;0.232;2022-10-16T09:19:38;18.50;73.70
24668;DHT22;12793;48.014;0.232;2022-10-16T09:22:10;18.50;73.40
24668;DHT22;12793;48.014;0.232;2022-10-16T09:24:37;18.60;74.10
24668;DHT22;12793;48.014;0.232;2022-10-16T09:27:03;18.60;73.40
24668;DHT22;12793;48.014;0.232;2022-10-16T09:29:28;18.70;73.20
24668;DHT22;12793;48.014;0.232;2022-10-16T09:31:54;18.70;73.00
24668;DHT22;12793;48.014;0.232;2022-10-16T09:36:54;18.80;73.00
24668;DHT22;12793;48.014;0.232;2022-10-16T09:39:21;18.90;72.90
24668;DHT22;12793;48.014;0.232;2022-10-16T09:41:46;19.00;72.60
24668;DHT22;12793;48.014;0.232;2022-10-16T09:44:23;19.10;71.80
24668;DHT22;12793;48.014;0.232;2022-10-16T09:47:00;19.20;71.40
24668;DHT22;12793;48.014;0.232;2022-10-16T09:49:26;19.30;70.90
24668;DHT22;12793;48.014;0.232;2022-10-16T09:54:36;19.40;70.00
24668;DHT22;12793;48.014;0.232;2022-10-16T09:57:05;19.50;69.60
24668;DHT22;12793;48.014;0.232;2022-10-16T09:59:31;19.50;69.50
24668;DHT22;12793;48.014;0.232;2022-10-16T10:01:58;19.70;69.50
24668;DHT22;12793;48.014;0.232;2022-10-16T10:04:36;19.80;69.00
24668;DHT22;12793;48.014;0.232;2022-10-16T10:07:03;19.90;68.30
24668;DHT22;12793;48.014;0.232;2022-10-16T10:09:32;19.90;68.00
24668;DHT22;12793;48.014;0.232;2022-10-16T10:12:00;20.00;68.00
24668;DHT22;12793;48.014;0.232;2022-10-16T10:17:17;19.90;67.40
24668;DHT22;12793;48.014;0.232;2022-10-16T10:30:01;20.60;66.20
24668;DHT22;12793;48.014;0.232;2022-10-16T10:37:34;21.00;65.00
24668;DHT22;12793;48.014;0.232;2022-10-16T10:40:15;21.00;64.70
24668;DHT22;12793;48.014;0.232;2022-10-16T10:42:54;21.00;64.60
24668;DHT22;12793;48.014;0.232;2022-10-16T10:45:25;21.10;65.00
24668;DHT22;12793;48.014;0.232;2022-10-16T10:50:49;21.30;64.90
24668;DHT22;12793;48.014;0.232;2022-10-16T11:06:06;22.40;63.10
24668;DHT22;12793;48.014;0.232;2022-10-16T11:08:53;22.50;63.00
24668;DHT22;12793;48.014;0.232;2022-10-16T11:13:56;22.60;62.70
24668;DHT22;12793;48.014;0.232;2022-10-16T11:16:26;22.60;61.60
24668;DHT22;12793;48.014;0.232;2022-10-16T11:18:59;22.70;61.30
24668;DHT22;12793;48.014;0.232;2022-10-16T11:21:28;22.80;61.60
24668;DHT22;12793;48.014;0.232;2022-10-16T11:23:57;23.00;61.40
24668;DHT22;12793;48.014;0.232;2022-10-16T11:26:25;23.20;61.50
24668;DHT22;12793;48.014;0.232;2022-10-16T11:28:53;23.50;60.40
24668;DHT22;12793;48.014;0.232;2022-10-16T11:31:36;23.70;59.60
24668;DHT22;12793;48.014;0.232;2022-10-16T11:34:13;23.90;59.20
24668;DHT22;12793;48.014;0.232;2022-10-16T11:37:04;23.90;59.10
24668;DHT22;12793;48.014;0.232;2022-10-16T11:39:30;23.90;59.10
24668;DHT22;12793;48.014;0.232;2022-10-16T11:42:02;23.80;59.00
24668;DHT22;12793;48.014;0.232;2022-10-16T11:49:57;23.90;59.50
24668;DHT22;12793;48.014;0.232;2022-10-16T11:52:28;24.10;59.40
24668;DHT22;12793;48.014;0.232;2022-10-16T11:57:26;24.50;59.00
24668;DHT22;12793;48.014;0.232;2022-10-16T12:02:46;25.10;58.00
24668;DHT22;12793;48.014;0.232;2022-10-16T12:05:21;25.30;57.80
24668;DHT22;12793;48.014;0.232;2022-10-16T12:07:50;25.80;57.90
24668;DHT22;12793;48.014;0.232;2022-10-16T12:10:25;26.10;56.00
24668;DHT22;12793;48.014;0.232;2022-10-16T12:12:51;26.20;55.30
24668;DHT22;12793;48.014;0.232;2022-10-16T12:17:45;26.00;55.60
24668;DHT22;12793;48.014;0.232;2022-10-16T12:22:36;25.90;55.70
24668;DHT22;12793;48.014;0.232;2022-10-16T12:25:17;25.80;55.00
24668;DHT22;12793;48.014;0.232;2022-10-16T12:27:44;25.60;55.10
24668;DHT22;12793;48.014;0.232;2022-10-16T12:30:15;25.40;55.20
24668;DHT22;12793;48.014;0.232;2022-10-16T12:32:45;25.30;55.10
24668;DHT22;12793;48.014;0.232;2022-10-16T12:35:23;25.30;55.80
24668;DHT22;12793;48.014;0.232;2022-10-16T12:37:49;25.40;55.90
24668;DHT22;12793;48.014;0.232;2022-10-16T12:42:50;25.70;55.20
24668;DHT22;12793;48.014;0.232;2022-10-16T12:45:32;25.80;55.60
24668;DHT22;12793;48.014;0.232;2022-10-16T12:47:58;26.10;55.50
24668;DHT22;12793;48.014;0.232;2022-10-16T12:50:32;26.30;54.80
24668;DHT22;12793;48.014;0.232;2022-10-16T12:52:58;26.50;54.30
24668;DHT22;12793;48.014;0.232;2022-10-16T12:55:25;26.80;54.70
24668;DHT22;12793;48.014;0.232;2022-10-16T13:03:14;27.30;53.70
24668;DHT22;12793;48.014;0.232;2022-10-16T13:21:53;27.20;52.20
24668;DHT22;12793;48.014;0.232;2022-10-16T13:27:07;27.30;52.50
24668;DHT22;12793;48.014;0.232;2022-10-16T13:29:31;27.20;52.00
24668;DHT22;12793;48.014;0.232;2022-10-16T13:31:57;27.00;52.30
24668;DHT22;12793;48.014;0.232;2022-10-16T13:34:23;26.90;52.40
24668;DHT22;12793;48.014;0.232;2022-10-16T13:36:50;26.80;52.60
24668;DHT22;12793;48.014;0.232;2022-10-16T13:39:26;26.60;52.30
24668;DHT22;12793;48.014;0.232;2022-10-16T13:44:31;26.20;52.80
24668;DHT22;12793;48.014;0.232;2022-10-16T13:47:00;26.00;53.00
24668;DHT22;12793;48.014;0.232;2022-10-16T13:49:26;25.90;53.10
24668;DHT22;12793;48.014;0.232;2022-10-16T13:51:55;25.90;52.90
24668;DHT22;12793;48.014;0.232;2022-10-16T13:54:21;25.90;53.40
24668;DHT22;12793;48.014;0.232;2022-10-16T13:56:47;26.20;53.90
24668;DHT22;12793;48.014;0.232;2022-10-16T14:01:47;27.00;53.60
24668;DHT22;12793;48.014;0.232;2022-10-16T14:04:14;27.50;52.70
24668;DHT22;12793;48.014;0.232;2022-10-16T14:06:40;28.00;52.20
24668;DHT22;12793;48.014;0.232;2022-10-16T14:09:07;28.40;52.10
24668;DHT22;12793;48.014;0.232;2022-10-16T14:11:36;28.70;51.10
24668;DHT22;12793;48.014;0.232;2022-10-16T14:14:02;28.70;50.50
24668;DHT22;12793;48.014;0.232;2022-10-16T14:16:28;28.60;50.90
24668;DHT22;12793;48.014;0.232;2022-10-16T14:18:59;28.40;50.70
24668;DHT22;12793;48.014;0.232;2022-10-16T14:21:25;28.20;50.80
24668;DHT22;12793;48.014;0.232;2022-10-16T14:23:51;28.00;50.80
24668;DHT22;12793;48.014;0.232;2022-10-16T14:26:19;28.00;51.40
24668;DHT22;12793;48.014;0.232;2022-10-16T14:28:45;28.10;51.40
24668;DHT22;12793;48.014;0.232;2022-10-16T14:33:49;28.60;51.30
24668;DHT22;12793;48.014;0.232;2022-10-16T14:36:15;28.90;51.20
24668;DHT22;12793;48.014;0.232;2022-10-16T14:38:54;29.20;51.00
24668;DHT22;12793;48.014;0.232;2022-10-16T14:41:22;29.50;50.80
24668;DHT22;12793;48.014;0.232;2022-10-16T14:44:01;29.60;49.80
24668;DHT22;12793;48.014;0.232;2022-10-16T14:46:37;29.50;49.30
24668;DHT22;12793;48.014;0.232;2022-10-16T14:51:28;28.90;49.90
24668;DHT22;12793;48.014;0.232;2022-10-16T14:53:54;28.60;50.00
24668;DHT22;12793;48.014;0.232;2022-10-16T14:56:23;28.30;50.30
24668;DHT22;12793;48.014;0.232;2022-10-16T14:58:50;28.20;50.80
24668;DHT22;12793;48.014;0.232;2022-10-16T15:01:15;28.20;51.10
24668;DHT22;12793;48.014;0.232;2022-10-16T15:03:41;28.30;51.20
24668;DHT22;12793;48.014;0.232;2022-10-16T15:06:16;28.30;51.00
24668;DHT22;12793;48.014;0.232;2022-10-16T15:08:42;28.30;50.50
24668;DHT22;12793;48.014;0.232;2022-10-16T15:11:16;28.10;50.50
24668;DHT22;12793;48.014;0.232;2022-10-16T15:13:43;27.90;51.00
24668;DHT22;12793;48.014;0.232;2022-10-16T15:16:13;27.80;51.60
24668;DHT22;12793;48.014;0.232;2022-10-16T15:18:39;27.90;51.90
24668;DHT22;12793;48.014;0.232;2022-10-16T15:21:04;28.20;51.90
24668;DHT22;12793;48.014;0.232;2022-10-16T15:23:30;28.40;51.40
24668;DHT22;12793;48.014;0.232;2022-10-16T15:25:56;28.60;50.40
24668;DHT22;12793;48.014;0.232;2022-10-16T15:28:22;28.60;50.20
24668;DHT22;12793;48.014;0.232;2022-10-16T15:30:49;28.60;49.50
24668;DHT22;12793;48.014;0.232;2022-10-16T15:33:16;28.60;49.90
24668;DHT22;12793;48.014;0.232;2022-10-16T15:35:42;28.60;50.20
24668;DHT22;12793;48.014;0.232;2022-10-16T15:38:11;28.60;50.10
24668;DHT22;12793;48.014;0.232;2022-10-16T15:40:38;28.50;50.00
24668;DHT22;12793;48.014;0.232;2022-10-16T15:43:03;28.30;49.50
24668;DHT22;12793;48.014;0.232;2022-10-16T15:45:29;28.00;49.90
24668;DHT22;12793;48.014;0.232;2022-10-16T15:47:54;27.80;50.50
24668;DHT22;12793;48.014;0.232;2022-10-16T15:50:20;27.80;50.60
24668;DHT22;12793;48.014;0.232;2022-10-16T15:52:45;27.60;50.50
24668;DHT22;12793;48.014;0.232;2022-10-16T15:55:12;27.60;50.90
24668;DHT22;12793;48.014;0.232;2022-10-16T15:57:38;27.70;51.10
24668;DHT22;12793;48.014;0.232;2022-10-16T16:00:06;27.70;51.40
24668;DHT22;12793;48.014;0.232;2022-10-16T16:02:32;27.80;51.30
24668;DHT22;12793;48.014;0.232;2022-10-16T16:04:58;27.80;50.90
24668;DHT22;12793;48.014;0.232;2022-10-16T16:07:24;27.80;50.50
24668;DHT22;12793;48.014;0.232;2022-10-16T16:09:50;27.70;50.90
24668;DHT22;12793;48.014;0.232;2022-10-16T16:12:15;27.70;51.20
24668;DHT22;12793;48.014;0.232;2022-10-16T16:14:41;27.70;51.30
24668;DHT22;12793;48.014;0.232;2022-10-16T16:17:06;27.70;51.20
24668;DHT22;12793;48.014;0.232;2022-10-16T16:19:32;27.70;50.80
24668;DHT22;12793;48.014;0.232;2022-10-16T16:21:58;27.60;51.00
24668;DHT22;12793;48.014;0.232;2022-10-16T16:24:23;27.40;51.20
24668;DHT22;12793;48.014;0.232;2022-10-16T16:26:49;27.30;51.40
24668;DHT22;12793;48.014;0.232;2022-10-16T16:29:15;27.10;51.50
24668;DHT22;12793;48.014;0.232;2022-10-16T16:31:41;26.90;51.70
24668;DHT22;12793;48.014;0.232;2022-10-16T16:34:07;26.70;51.90
24668;DHT22;12793;48.014;0.232;2022-10-16T16:36:33;26.50;52.00
24668;DHT22;12793;48.014;0.232;2022-10-16T16:38:59;26.30;52.20
24668;DHT22;12793;48.014;0.232;2022-10-16T16:41:26;26.10;52.50
24668;DHT22;12793;48.014;0.232;2022-10-16T16:43:52;25.90;52.70
24668;DHT22;12793;48.014;0.232;2022-10-16T16:46:18;25.70;53.00
24668;DHT22;12793;48.014;0.232;2022-10-16T16:48:43;25.50;53.30
24668;DHT22;12793;48.014;0.232;2022-10-16T16:51:10;25.30;53.60
24668;DHT22;12793;48.014;0.232;2022-10-16T16:53:45;25.10;53.70
24668;DHT22;12793;48.014;0.232;2022-10-16T16:56:11;24.90;53.90
24668;DHT22;12793;48.014;0.232;2022-10-16T16:58:36;24.80;54.20
24668;DHT22;12793;48.014;0.232;2022-10-16T17:01:02;24.60;54.40
24668;DHT22;12793;48.014;0.232;2022-10-16T17:03:29;24.50;54.60
24668;DHT22;12793;48.014;0.232;2022-10-16T17:05:58;24.30;54.80
24668;DHT22;12793;48.014;0.232;2022-10-16T17:08:24;24.20;55.00
24668;DHT22;12793;48.014;0.232;2022-10-16T17:10:49;24.10;55.20
24668;DHT22;12793;48.014;0.232;2022-10-16T17:13:18;23.90;55.40
24668;DHT22;12793;48.014;0.232;2022-10-16T17:15:47;23.80;55.70
24668;DHT22;12793;48.014;0.232;2022-10-16T17:18:13;23.70;55.80
24668;DHT22;12793;48.014;0.232;2022-10-16T17:20:38;23.50;56.00
24668;DHT22;12793;48.014;0.232;2022-10-16T17:23:04;23.40;56.30
24668;DHT22;12793;48.014;0.232;2022-10-16T17:25:29;23.30;56.60
24668;DHT22;12793;48.014;0.232;2022-10-16T17:27:55;23.10;56.70
24668;DHT22;12793;48.014;0.232;2022-10-16T17:30:22;23.00;56.90
24668;DHT22;12793;48.014;0.232;2022-10-16T17:32:48;22.90;57.10
24668;DHT22;12793;48.014;0.232;2022-10-16T17:35:13;22.80;57.40
24668;DHT22;12793;48.014;0.232;2022-10-16T17:37:39;22.70;57.60
24668;DHT22;12793;48.014;0.232;2022-10-16T17:40:06;22.60;57.80